sensor_id;sensor_type;location;lat;lon;timestamp;temperature;humidity
42141;DHT22;27809;51.864;5.646;2023-02-08T00:02:09;-2.10;99.90
42141;DHT22;27809;51.864;5.646;2023-02-08T00:04:34;-2.00;99.90
42141;DHT22;27809;51.864;5.646;2023-02-08T00:07:00;-1.90;99.90
42141;DHT22;27809;51.864;5.646;2023-02-08T00:09:25;-2.00;99.90
42141;DHT22;27809;51.864;5.646;2023-02-08T00:11:51;-2.10;99.90
42141;DHT22;27809;51.864;5.646;2023-02-08T00:14:17;-2.20;99.90
42141;DHT22;27809;51.864;5.646;2023-02-08T00:16:42;-2.20;99.90
42141;DHT22;27809;51.864;5.646;2023-02-08T00:19:08;-2.10;99.90
42141;DHT22;27809;51.864;5.646;2023-02-08T00:21:33;-2.00;99.90
42141;DHT22;27809;51.864;5.646;2023-02-08T00:23:59;-1.90;99.90
42141;DHT22;27809;51.864;5.646;2023-02-08T00:26:24;-1.80;99.90
42141;DHT22;27809;51.864;5.646;2023-02-08T00:28:50;-1.70;99.90
42141;DHT22;27809;51.864;5.646;2023-02-08T00:31:15;-1.70;99.90
42141;DHT22;27809;51.864;5.646;2023-02-08T00:33:41;-1.90;99.90
42141;DHT22;27809;51.864;5.646;2023-02-08T00:36:07;-2.00;99.90
42141;DHT22;27809;51.864;5.646;2023-02-08T00:38:34;-1.80;99.90
42141;DHT22;27809;51.864;5.646;2023-02-08T00:40:59;-2.00;99.90
42141;DHT22;27809;51.864;5.646;2023-02-08T00:43:25;-2.00;99.90
42141;DHT22;27809;51.864;5.646;2023-02-08T00:45:54;-2.10;99.90
42141;DHT22;27809;51.864;5.646;2023-02-08T00:48:20;-2.10;99.90
42141;DHT22;27809;51.864;5.646;2023-02-08T00:51:00;-2.10;99.90
42141;DHT22;27809;51.864;5.646;2023-02-08T00:53:26;-2.20;99.90
42141;DHT22;27809;51.864;5.646;2023-02-08T00:55:53;-2.10;99.90
42141;DHT22;27809;51.864;5.646;2023-02-08T00:58:20;-2.10;99.90
42141;DHT22;27809;51.864;5.646;2023-02-08T01:00:46;-2.10;99.90
42141;DHT22;27809;51.864;5.646;2023-02-08T01:03:11;-2.10;99.90
42141;DHT22;27809;51.864;5.646;2023-02-08T01:05:37;-2.20;99.90
42141;DHT22;27809;51.864;5.646;2023-02-08T01:08:03;-2.10;99.90
42141;DHT22;27809;51.864;5.646;2023-02-08T01:10:29;-2.10;99.90
42141;DHT22;27809;51.864;5.646;2023-02-08T01:12:54;-1.90;99.90
42141;DHT22;27809;51.864;5.646;2023-02-08T01:15:20;-1.90;99.90
42141;DHT22;27809;51.864;5.646;2023-02-08T01:17:45;-2.00;99.90
42141;DHT22;27809;51.864;5.646;2023-02-08T01:20:11;-1.80;99.90
42141;DHT22;27809;51.864;5.646;2023-02-08T01:22:37;-1.90;99.90
42141;DHT22;27809;51.864;5.646;2023-02-08T01:25:02;-1.80;99.90
42141;DHT22;27809;51.864;5.646;2023-02-08T01:27:28;-1.90;99.90
42141;DHT22;27809;51.864;5.646;2023-02-08T01:29:54;-2.00;99.90
42141;DHT22;27809;51.864;5.646;2023-02-08T01:32:19;-1.90;99.90
42141;DHT22;27809;51.864;5.646;2023-02-08T01:34:45;-2.20;99.90
42141;DHT22;27809;51.864;5.646;2023-02-08T01:37:10;-2.30;99.90
42141;DHT22;27809;51.864;5.646;2023-02-08T01:39:36;-2.40;99.90
42141;DHT22;27809;51.864;5.646;2023-02-08T01:42:01;-2.20;99.90
42141;DHT22;27809;51.864;5.646;2023-02-08T01:47:30;-2.00;99.90
42141;DHT22;27809;51.864;5.646;2023-02-08T01:49:56;-1.90;99.90
42141;DHT22;27809;51.864;5.646;2023-02-08T01:52:25;-1.80;99.90
42141;DHT22;27809;51.864;5.646;2023-02-08T01:55:00;-1.70;99.90
42141;DHT22;27809;51.864;5.646;2023-02-08T01:57:27;-1.80;99.90
42141;DHT22;27809;51.864;5.646;2023-02-08T01:59:57;-1.80;99.90
42141;DHT22;27809;51.864;5.646;2023-02-08T02:02:25;-2.00;99.90
42141;DHT22;27809;51.864;5.646;2023-02-08T02:04:51;-2.20;99.90
42141;DHT22;27809;51.864;5.646;2023-02-08T02:07:18;-2.10;99.90
42141;DHT22;27809;51.864;5.646;2023-02-08T02:09:56;-2.30;99.90
42141;DHT22;27809;51.864;5.646;2023-02-08T02:12:23;-2.30;99.90
42141;DHT22;27809;51.864;5.646;2023-02-08T02:14:48;-2.30;99.90
42141;DHT22;27809;51.864;5.646;2023-02-08T02:17:15;-2.50;99.90
42141;DHT22;27809;51.864;5.646;2023-02-08T02:19:52;-2.60;99.90
42141;DHT22;27809;51.864;5.646;2023-02-08T02:28:38;-2.50;99.90
42141;DHT22;27809;51.864;5.646;2023-02-08T02:34:16;-2.40;99.90
42141;DHT22;27809;51.864;5.646;2023-02-08T02:39:53;-2.30;99.90
42141;DHT22;27809;51.864;5.646;2023-02-08T02:45:57;-2.10;99.90
42141;DHT22;27809;51.864;5.646;2023-02-08T02:48:37;-2.10;99.90
42141;DHT22;27809;51.864;5.646;2023-02-08T02:51:13;-2.10;99.90
42141;DHT22;27809;51.864;5.646;2023-02-08T02:53:46;-2.20;99.90
42141;DHT22;27809;51.864;5.646;2023-02-08T02:56:18;-2.10;99.90
42141;DHT22;27809;51.864;5.646;2023-02-08T02:58:45;-2.00;99.90
42141;DHT22;27809;51.864;5.646;2023-02-08T03:01:11;-2.00;99.90
42141;DHT22;27809;51.864;5.646;2023-02-08T03:03:37;-2.10;99.90
42141;DHT22;27809;51.864;5.646;2023-02-08T03:06:06;-2.10;99.90
42141;DHT22;27809;51.864;5.646;2023-02-08T03:11:23;-2.20;99.90
42141;DHT22;27809;51.864;5.646;2023-02-08T03:14:19;-2.20;99.90
42141;DHT22;27809;51.864;5.646;2023-02-08T03:17:03;-2.20;99.90
42141;DHT22;27809;51.864;5.646;2023-02-08T03:19:42;-2.30;99.90
42141;DHT22;27809;51.864;5.646;2023-02-08T03:22:15;-2.50;99.90
42141;DHT22;27809;51.864;5.646;2023-02-08T03:25:20;-2.70;99.90
42141;DHT22;27809;51.864;5.646;2023-02-08T03:28:04;-2.80;99.90
42141;DHT22;27809;51.864;5.646;2023-02-08T03:30:45;-2.80;99.90
42141;DHT22;27809;51.864;5.646;2023-02-08T03:33:22;-2.70;99.90
42141;DHT22;27809;51.864;5.646;2023-02-08T03:35:58;-2.70;99.90
42141;DHT22;27809;51.864;5.646;2023-02-08T03:38:38;-2.50;99.90
42141;DHT22;27809;51.864;5.646;2023-02-08T03:41:09;-2.60;99.90
42141;DHT22;27809;51.864;5.646;2023-02-08T03:43:45;-2.70;99.90
42141;DHT22;27809;51.864;5.646;2023-02-08T03:46:21;-2.70;99.90
42141;DHT22;27809;51.864;5.646;2023-02-08T03:48:55;-2.70;99.90
42141;DHT22;27809;51.864;5.646;2023-02-08T03:51:23;-2.80;99.90
42141;DHT22;27809;51.864;5.646;2023-02-08T03:53:52;-2.70;99.90
42141;DHT22;27809;51.864;5.646;2023-02-08T03:56:35;-2.70;99.90
42141;DHT22;27809;51.864;5.646;2023-02-08T03:59:07;-2.60;99.90
42141;DHT22;27809;51.864;5.646;2023-02-08T04:02:02;-2.60;99.90
42141;DHT22;27809;51.864;5.646;2023-02-08T04:04:31;-2.70;99.90
42141;DHT22;27809;51.864;5.646;2023-02-08T04:06:58;-2.80;99.90
42141;DHT22;27809;51.864;5.646;2023-02-08T04:09:24;-2.80;99.90
42141;DHT22;27809;51.864;5.646;2023-02-08T04:11:50;-2.70;99.90
42141;DHT22;27809;51.864;5.646;2023-02-08T04:14:16;-2.90;99.90
42141;DHT22;27809;51.864;5.646;2023-02-08T04:16:41;-2.90;99.90
42141;DHT22;27809;51.864;5.646;2023-02-08T04:19:07;-2.80;99.90
42141;DHT22;27809;51.864;5.646;2023-02-08T04:21:33;-2.70;99.90
42141;DHT22;27809;51.864;5.646;2023-02-08T04:23:58;-2.70;99.90
42141;DHT22;27809;51.864;5.646;2023-02-08T04:26:24;-2.70;99.90
42141;DHT22;27809;51.864;5.646;2023-02-08T04:28:49;-2.70;99.90
42141;DHT22;27809;51.864;5.646;2023-02-08T04:31:15;-2.80;99.90
42141;DHT22;27809;51.864;5.646;2023-02-08T04:33:40;-2.90;99.90
42141;DHT22;27809;51.864;5.646;2023-02-08T04:36:06;-2.90;99.90
42141;DHT22;27809;51.864;5.646;2023-02-08T04:38:32;-3.10;99.90
42141;DHT22;27809;51.864;5.646;2023-02-08T04:40:57;-2.80;99.90
42141;DHT22;27809;51.864;5.646;2023-02-08T04:43:23;-2.80;99.90
42141;DHT22;27809;51.864;5.646;2023-02-08T04:45:49;-2.90;99.90
42141;DHT22;27809;51.864;5.646;2023-02-08T04:48:15;-2.80;99.90
42141;DHT22;27809;51.864;5.646;2023-02-08T04:50:41;-2.70;99.90
42141;DHT22;27809;51.864;5.646;2023-02-08T04:53:06;-2.70;99.90
42141;DHT22;27809;51.864;5.646;2023-02-08T04:55:32;-2.70;99.90
42141;DHT22;27809;51.864;5.646;2023-02-08T04:57:58;-2.70;99.90
42141;DHT22;27809;51.864;5.646;2023-02-08T05:00:23;-2.80;99.90
42141;DHT22;27809;51.864;5.646;2023-02-08T05:02:53;-2.80;99.90
42141;DHT22;27809;51.864;5.646;2023-02-08T05:05:19;-2.70;99.90
42141;DHT22;27809;51.864;5.646;2023-02-08T05:07:45;-2.60;99.90
42141;DHT22;27809;51.864;5.646;2023-02-08T05:10:10;-2.70;99.90
42141;DHT22;27809;51.864;5.646;2023-02-08T05:12:36;-2.70;99.90
42141;DHT22;27809;51.864;5.646;2023-02-08T05:15:01;-2.70;99.90
42141;DHT22;27809;51.864;5.646;2023-02-08T05:17:27;-2.70;99.90
42141;DHT22;27809;51.864;5.646;2023-02-08T05:19:53;-2.60;99.90
42141;DHT22;27809;51.864;5.646;2023-02-08T05:22:18;-2.70;99.90
42141;DHT22;27809;51.864;5.646;2023-02-08T05:24:44;-2.70;99.90
42141;DHT22;27809;51.864;5.646;2023-02-08T05:27:09;-2.70;99.90
42141;DHT22;27809;51.864;5.646;2023-02-08T05:29:35;-2.60;99.90
42141;DHT22;27809;51.864;5.646;2023-02-08T05:32:00;-2.70;99.90
42141;DHT22;27809;51.864;5.646;2023-02-08T05:34:26;-2.70;99.90
42141;DHT22;27809;51.864;5.646;2023-02-08T05:36:51;-2.80;99.90
42141;DHT22;27809;51.864;5.646;2023-02-08T05:39:17;-2.90;99.90
42141;DHT22;27809;51.864;5.646;2023-02-08T05:41:42;-2.80;99.90
42141;DHT22;27809;51.864;5.646;2023-02-08T05:44:08;-2.90;99.90
42141;DHT22;27809;51.864;5.646;2023-02-08T05:46:33;-2.90;99.90
42141;DHT22;27809;51.864;5.646;2023-02-08T05:48:59;-2.90;99.90
42141;DHT22;27809;51.864;5.646;2023-02-08T05:51:24;-3.00;99.90
42141;DHT22;27809;51.864;5.646;2023-02-08T05:53:50;-3.00;99.90
42141;DHT22;27809;51.864;5.646;2023-02-08T05:56:16;-3.00;99.90
42141;DHT22;27809;51.864;5.646;2023-02-08T05:58:41;-3.00;99.90
42141;DHT22;27809;51.864;5.646;2023-02-08T06:01:08;-3.00;99.90
42141;DHT22;27809;51.864;5.646;2023-02-08T06:03:35;-3.00;99.90
42141;DHT22;27809;51.864;5.646;2023-02-08T06:06:00;-3.00;99.90
42141;DHT22;27809;51.864;5.646;2023-02-08T06:08:26;-3.00;99.90
42141;DHT22;27809;51.864;5.646;2023-02-08T06:10:52;-3.10;99.90
42141;DHT22;27809;51.864;5.646;2023-02-08T06:13:18;-2.80;99.90
42141;DHT22;27809;51.864;5.646;2023-02-08T06:15:43;-2.80;99.90
42141;DHT22;27809;51.864;5.646;2023-02-08T06:18:09;-2.70;99.90
42141;DHT22;27809;51.864;5.646;2023-02-08T06:20:36;-2.80;99.90
42141;DHT22;27809;51.864;5.646;2023-02-08T06:23:02;-2.90;99.90
42141;DHT22;27809;51.864;5.646;2023-02-08T06:25:27;-2.90;99.90
42141;DHT22;27809;51.864;5.646;2023-02-08T06:27:53;-3.00;99.90
42141;DHT22;27809;51.864;5.646;2023-02-08T06:30:18;-3.00;99.90
42141;DHT22;27809;51.864;5.646;2023-02-08T06:32:44;-3.10;99.90
42141;DHT22;27809;51.864;5.646;2023-02-08T06:35:10;-3.10;99.90
42141;DHT22;27809;51.864;5.646;2023-02-08T06:37:35;-3.30;99.90
42141;DHT22;27809;51.864;5.646;2023-02-08T06:40:01;-3.50;99.90
42141;DHT22;27809;51.864;5.646;2023-02-08T06:42:27;-3.50;99.90
42141;DHT22;27809;51.864;5.646;2023-02-08T06:44:52;-3.60;99.90
42141;DHT22;27809;51.864;5.646;2023-02-08T06:47:20;-3.50;99.90
42141;DHT22;27809;51.864;5.646;2023-02-08T06:49:46;-3.20;99.90
42141;DHT22;27809;51.864;5.646;2023-02-08T06:52:12;-3.20;99.90
42141;DHT22;27809;51.864;5.646;2023-02-08T06:54:37;-3.10;99.90
42141;DHT22;27809;51.864;5.646;2023-02-08T06:57:03;-3.20;99.90
42141;DHT22;27809;51.864;5.646;2023-02-08T06:59:28;-3.10;99.90
42141;DHT22;27809;51.864;5.646;2023-02-08T07:01:54;-3.10;99.90
42141;DHT22;27809;51.864;5.646;2023-02-08T07:04:20;-2.90;99.90
42141;DHT22;27809;51.864;5.646;2023-02-08T07:06:48;-2.90;99.90
42141;DHT22;27809;51.864;5.646;2023-02-08T07:09:15;-3.10;99.90
42141;DHT22;27809;51.864;5.646;2023-02-08T07:11:40;-2.80;99.90
42141;DHT22;27809;51.864;5.646;2023-02-08T07:14:06;-2.90;99.90
42141;DHT22;27809;51.864;5.646;2023-02-08T07:16:32;-2.90;99.90
42141;DHT22;27809;51.864;5.646;2023-02-08T07:18:57;-2.90;99.90
42141;DHT22;27809;51.864;5.646;2023-02-08T07:21:23;-2.90;99.90
42141;DHT22;27809;51.864;5.646;2023-02-08T07:23:49;-2.80;99.90
42141;DHT22;27809;51.864;5.646;2023-02-08T07:26:14;-2.80;99.90
42141;DHT22;27809;51.864;5.646;2023-02-08T07:28:40;-2.70;99.90
42141;DHT22;27809;51.864;5.646;2023-02-08T07:31:07;-2.60;99.90
42141;DHT22;27809;51.864;5.646;2023-02-08T07:33:33;-2.60;99.90
42141;DHT22;27809;51.864;5.646;2023-02-08T07:35:59;-2.60;99.90
42141;DHT22;27809;51.864;5.646;2023-02-08T07:38:25;-2.70;99.90
42141;DHT22;27809;51.864;5.646;2023-02-08T07:40:50;-2.80;99.90
42141;DHT22;27809;51.864;5.646;2023-02-08T07:43:16;-2.70;99.90
42141;DHT22;27809;51.864;5.646;2023-02-08T07:45:41;-2.60;99.90
42141;DHT22;27809;51.864;5.646;2023-02-08T07:48:07;-2.60;99.90
42141;DHT22;27809;51.864;5.646;2023-02-08T07:50:32;-2.50;99.90
42141;DHT22;27809;51.864;5.646;2023-02-08T07:52:58;-2.40;99.90
42141;DHT22;27809;51.864;5.646;2023-02-08T07:55:24;-2.30;99.90
42141;DHT22;27809;51.864;5.646;2023-02-08T07:57:49;-1.10;99.90
42141;DHT22;27809;51.864;5.646;2023-02-08T08:00:16;-1.50;99.90
42141;DHT22;27809;51.864;5.646;2023-02-08T08:02:43;-1.90;99.90
42141;DHT22;27809;51.864;5.646;2023-02-08T08:05:09;-1.40;99.90
42141;DHT22;27809;51.864;5.646;2023-02-08T08:07:36;-1.30;99.90
42141;DHT22;27809;51.864;5.646;2023-02-08T08:10:02;-1.70;99.90
42141;DHT22;27809;51.864;5.646;2023-02-08T08:12:27;-1.60;99.90
42141;DHT22;27809;51.864;5.646;2023-02-08T08:14:53;-1.70;99.90
42141;DHT22;27809;51.864;5.646;2023-02-08T08:17:19;-1.70;99.90
42141;DHT22;27809;51.864;5.646;2023-02-08T08:19:44;-1.70;99.90
42141;DHT22;27809;51.864;5.646;2023-02-08T08:22:10;-1.50;99.90
42141;DHT22;27809;51.864;5.646;2023-02-08T08:24:36;0.10;99.90
42141;DHT22;27809;51.864;5.646;2023-02-08T08:27:02;-0.30;99.90
42141;DHT22;27809;51.864;5.646;2023-02-08T08:29:31;-1.00;99.90
42141;DHT22;27809;51.864;5.646;2023-02-08T08:31:56;-0.80;99.90
42141;DHT22;27809;51.864;5.646;2023-02-08T08:34:22;0.10;99.90
42141;DHT22;27809;51.864;5.646;2023-02-08T08:36:57;0.00;98.50
42141;DHT22;27809;51.864;5.646;2023-02-08T08:39:24;-0.40;99.90
42141;DHT22;27809;51.864;5.646;2023-02-08T08:41:52;0.10;99.90
42141;DHT22;27809;51.864;5.646;2023-02-08T08:44:17;0.60;98.20
42141;DHT22;27809;51.864;5.646;2023-02-08T08:46:43;0.30;97.30
42141;DHT22;27809;51.864;5.646;2023-02-08T08:49:08;0.20;99.50
42141;DHT22;27809;51.864;5.646;2023-02-08T08:51:34;0.40;99.90
42141;DHT22;27809;51.864;5.646;2023-02-08T08:54:03;0.70;96.10
42141;DHT22;27809;51.864;5.646;2023-02-08T08:56:29;0.90;96.70
42141;DHT22;27809;51.864;5.646;2023-02-08T08:58:55;1.30;92.80
42141;DHT22;27809;51.864;5.646;2023-02-08T09:01:20;0.70;94.00
42141;DHT22;27809;51.864;5.646;2023-02-08T09:03:46;0.50;95.70
42141;DHT22;27809;51.864;5.646;2023-02-08T09:06:11;0.40;97.10
42141;DHT22;27809;51.864;5.646;2023-02-08T09:08:37;0.30;99.60
42141;DHT22;27809;51.864;5.646;2023-02-08T09:11:04;0.20;99.90
42141;DHT22;27809;51.864;5.646;2023-02-08T09:13:30;0.20;99.90
42141;DHT22;27809;51.864;5.646;2023-02-08T09:15:56;0.40;98.40
42141;DHT22;27809;51.864;5.646;2023-02-08T09:18:21;0.80;95.60
42141;DHT22;27809;51.864;5.646;2023-02-08T09:20:47;0.90;92.40
42141;DHT22;27809;51.864;5.646;2023-02-08T09:23:12;1.10;82.80
42141;DHT22;27809;51.864;5.646;2023-02-08T09:25:38;1.40;80.70
42141;DHT22;27809;51.864;5.646;2023-02-08T09:28:04;1.30;85.60
42141;DHT22;27809;51.864;5.646;2023-02-08T09:30:30;1.60;73.60
42141;DHT22;27809;51.864;5.646;2023-02-08T09:32:56;2.50;63.10
42141;DHT22;27809;51.864;5.646;2023-02-08T09:35:21;3.10;58.50
42141;DHT22;27809;51.864;5.646;2023-02-08T09:37:47;3.30;60.00
42141;DHT22;27809;51.864;5.646;2023-02-08T09:40:29;4.00;47.20
42141;DHT22;27809;51.864;5.646;2023-02-08T09:43:08;3.70;45.30
42141;DHT22;27809;51.864;5.646;2023-02-08T09:46:01;3.70;41.70
42141;DHT22;27809;51.864;5.646;2023-02-08T09:48:37;4.10;40.60
42141;DHT22;27809;51.864;5.646;2023-02-08T09:54:12;5.90;36.20
42141;DHT22;27809;51.864;5.646;2023-02-08T09:56:40;5.40;34.90
42141;DHT22;27809;51.864;5.646;2023-02-08T09:59:22;4.40;32.10
42141;DHT22;27809;51.864;5.646;2023-02-08T10:01:49;4.60;41.10
42141;DHT22;27809;51.864;5.646;2023-02-08T10:04:35;4.60;31.50
42141;DHT22;27809;51.864;5.646;2023-02-08T10:07:02;5.00;28.50
42141;DHT22;27809;51.864;5.646;2023-02-08T10:09:27;5.70;26.40
42141;DHT22;27809;51.864;5.646;2023-02-08T10:12:20;5.10;27.30
42141;DHT22;27809;51.864;5.646;2023-02-08T10:15:09;4.40;30.10
42141;DHT22;27809;51.864;5.646;2023-02-08T10:26:22;6.10;26.10
42141;DHT22;27809;51.864;5.646;2023-02-08T10:31:52;7.80;21.10
42141;DHT22;27809;51.864;5.646;2023-02-08T10:34:57;9.20;16.00
42141;DHT22;27809;51.864;5.646;2023-02-08T10:37:49;8.70;15.30
42141;DHT22;27809;51.864;5.646;2023-02-08T10:45:39;8.10;15.80
42141;DHT22;27809;51.864;5.646;2023-02-08T10:48:13;7.80;16.80
42141;DHT22;27809;51.864;5.646;2023-02-08T10:50:42;7.10;16.60
42141;DHT22;27809;51.864;5.646;2023-02-08T10:53:15;7.80;17.40
42141;DHT22;27809;51.864;5.646;2023-02-08T10:55:43;8.20;14.50
42141;DHT22;27809;51.864;5.646;2023-02-08T10:58:18;10.40;16.90
42141;DHT22;27809;51.864;5.646;2023-02-08T11:00:46;8.20;13.70
42141;DHT22;27809;51.864;5.646;2023-02-08T11:03:33;8.10;12.80
42141;DHT22;27809;51.864;5.646;2023-02-08T11:06:00;7.10;14.30
42141;DHT22;27809;51.864;5.646;2023-02-08T11:08:27;7.80;13.00
42141;DHT22;27809;51.864;5.646;2023-02-08T11:11:06;6.60;16.40
42141;DHT22;27809;51.864;5.646;2023-02-08T11:13:42;7.00;18.60
42141;DHT22;27809;51.864;5.646;2023-02-08T11:16:19;7.10;15.00
42141;DHT22;27809;51.864;5.646;2023-02-08T11:18:53;7.10;14.90
42141;DHT22;27809;51.864;5.646;2023-02-08T11:21:22;7.20;15.40
42141;DHT22;27809;51.864;5.646;2023-02-08T11:23:51;6.90;14.90
42141;DHT22;27809;51.864;5.646;2023-02-08T11:26:30;7.60;16.30
42141;DHT22;27809;51.864;5.646;2023-02-08T11:31:32;6.90;14.00
42141;DHT22;27809;51.864;5.646;2023-02-08T11:34:06;6.90;14.30
42141;DHT22;27809;51.864;5.646;2023-02-08T11:36:34;6.30;16.40
42141;DHT22;27809;51.864;5.646;2023-02-08T11:39:03;6.50;17.00
42141;DHT22;27809;51.864;5.646;2023-02-08T11:41:42;6.20;17.30
42141;DHT22;27809;51.864;5.646;2023-02-08T11:44:15;6.10;13.20
42141;DHT22;27809;51.864;5.646;2023-02-08T11:46:45;6.00;20.10
42141;DHT22;27809;51.864;5.646;2023-02-08T11:49:24;5.90;17.20
42141;DHT22;27809;51.864;5.646;2023-02-08T11:51:51;6.10;16.10
42141;DHT22;27809;51.864;5.646;2023-02-08T11:54:37;6.10;12.50
42141;DHT22;27809;51.864;5.646;2023-02-08T11:57:15;6.70;12.80
42141;DHT22;27809;51.864;5.646;2023-02-08T11:59:41;7.30;16.50
42141;DHT22;27809;51.864;5.646;2023-02-08T12:02:33;7.60;12.40
42141;DHT22;27809;51.864;5.646;2023-02-08T12:04:59;8.10;13.10
42141;DHT22;27809;51.864;5.646;2023-02-08T12:07:36;7.80;11.60
42141;DHT22;27809;51.864;5.646;2023-02-08T12:15:46;6.60;15.40
42141;DHT22;27809;51.864;5.646;2023-02-08T12:21:14;10.80;63.00
42141;DHT22;27809;51.864;5.646;2023-02-08T12:23:55;15.70;1.00
42141;DHT22;27809;51.864;5.646;2023-02-08T12:29:37;8.30;8.20
42141;DHT22;27809;51.864;5.646;2023-02-08T12:32:44;8.10;4.80
42141;DHT22;27809;51.864;5.646;2023-02-08T12:44:05;11.60;1.00
42141;DHT22;27809;51.864;5.646;2023-02-08T12:52:37;10.40;1.00
42141;DHT22;27809;51.864;5.646;2023-02-08T12:55:25;10.70;1.00
42141;DHT22;27809;51.864;5.646;2023-02-08T12:57:54;11.40;2.20
42141;DHT22;27809;51.864;5.646;2023-02-08T13:00:28;11.00;1.50
42141;DHT22;27809;51.864;5.646;2023-02-08T13:03:11;11.50;1.00
42141;DHT22;27809;51.864;5.646;2023-02-08T13:05:47;11.00;1.00
42141;DHT22;27809;51.864;5.646;2023-02-08T13:11:09;10.40;1.00
42141;DHT22;27809;51.864;5.646;2023-02-08T13:13:37;11.00;1.00
42141;DHT22;27809;51.864;5.646;2023-02-08T13:16:12;12.10;1.00
42141;DHT22;27809;51.864;5.646;2023-02-08T13:18:43;11.00;1.00
42141;DHT22;27809;51.864;5.646;2023-02-08T13:21:17;9.70;1.40
42141;DHT22;27809;51.864;5.646;2023-02-08T13:23:46;11.00;3.10
42141;DHT22;27809;51.864;5.646;2023-02-08T13:26:22;10.70;1.00
42141;DHT22;27809;51.864;5.646;2023-02-08T13:28:54;9.80;4.40
42141;DHT22;27809;51.864;5.646;2023-02-08T13:31:40;9.20;1.00
42141;DHT22;27809;51.864;5.646;2023-02-08T13:34:19;8.70;1.30
42141;DHT22;27809;51.864;5.646;2023-02-08T13:36:51;7.70;5.80
42141;DHT22;27809;51.864;5.646;2023-02-08T13:39:41;7.90;1.10
42141;DHT22;27809;51.864;5.646;2023-02-08T13:45:31;7.40;4.10
42141;DHT22;27809;51.864;5.646;2023-02-08T13:48:03;7.10;4.90
42141;DHT22;27809;51.864;5.646;2023-02-08T13:50:45;7.00;4.20
42141;DHT22;27809;51.864;5.646;2023-02-08T13:53:12;7.00;6.10
42141;DHT22;27809;51.864;5.646;2023-02-08T14:03:23;7.20;3.40
42141;DHT22;27809;51.864;5.646;2023-02-08T14:05:51;7.10;1.00
42141;DHT22;27809;51.864;5.646;2023-02-08T14:08:29;7.10;2.30
42141;DHT22;27809;51.864;5.646;2023-02-08T14:11:15;7.00;2.60
42141;DHT22;27809;51.864;5.646;2023-02-08T14:13:49;8.80;55.60
42141;DHT22;27809;51.864;5.646;2023-02-08T14:16:38;8.00;2.80
42141;DHT22;27809;51.864;5.646;2023-02-08T14:19:20;6.90;5.20
42141;DHT22;27809;51.864;5.646;2023-02-08T14:21:52;6.60;4.40
42141;DHT22;27809;51.864;5.646;2023-02-08T14:24:42;6.60;4.30
42141;DHT22;27809;51.864;5.646;2023-02-08T14:32:27;7.10;4.20
42141;DHT22;27809;51.864;5.646;2023-02-08T14:35:07;7.00;3.20
42141;DHT22;27809;51.864;5.646;2023-02-08T14:37:34;6.80;5.50
42141;DHT22;27809;51.864;5.646;2023-02-08T14:43:05;6.60;3.40
42141;DHT22;27809;51.864;5.646;2023-02-08T14:45:50;6.60;1.80
42141;DHT22;27809;51.864;5.646;2023-02-08T14:48:29;6.40;5.40
42141;DHT22;27809;51.864;5.646;2023-02-08T14:53:38;6.10;4.70
42141;DHT22;27809;51.864;5.646;2023-02-08T14:58:52;5.70;8.00
42141;DHT22;27809;51.864;5.646;2023-02-08T15:01:43;5.40;7.80
42141;DHT22;27809;51.864;5.646;2023-02-08T15:04:07;5.40;7.00
42141;DHT22;27809;51.864;5.646;2023-02-08T15:09:11;5.60;8.00
42141;DHT22;27809;51.864;5.646;2023-02-08T15:11:38;5.20;10.30
42141;DHT22;27809;51.864;5.646;2023-02-08T15:14:05;5.20;11.00
42141;DHT22;27809;51.864;5.646;2023-02-08T15:16:38;5.10;8.60
42141;DHT22;27809;51.864;5.646;2023-02-08T15:19:07;5.10;7.30
42141;DHT22;27809;51.864;5.646;2023-02-08T15:21:33;5.20;8.00
42141;DHT22;27809;51.864;5.646;2023-02-08T15:26:27;5.00;10.80
42141;DHT22;27809;51.864;5.646;2023-02-08T15:28:54;4.80;10.80
42141;DHT22;27809;51.864;5.646;2023-02-08T15:31:23;4.90;6.10
42141;DHT22;27809;51.864;5.646;2023-02-08T15:33:52;5.00;6.20
42141;DHT22;27809;51.864;5.646;2023-02-08T15:36:24;4.80;9.40
42141;DHT22;27809;51.864;5.646;2023-02-08T15:38:53;4.80;8.40
42141;DHT22;27809;51.864;5.646;2023-02-08T15:41:28;4.70;8.20
42141;DHT22;27809;51.864;5.646;2023-02-08T15:44:17;4.80;7.80
42141;DHT22;27809;51.864;5.646;2023-02-08T15:46:44;4.70;8.80
42141;DHT22;27809;51.864;5.646;2023-02-08T15:49:19;4.70;8.30
42141;DHT22;27809;51.864;5.646;2023-02-08T15:51:46;4.30;10.50
42141;DHT22;27809;51.864;5.646;2023-02-08T15:54:17;4.30;11.30
42141;DHT22;27809;51.864;5.646;2023-02-08T15:56:49;4.60;16.80
42141;DHT22;27809;51.864;5.646;2023-02-08T15:59:23;4.20;10.90
42141;DHT22;27809;51.864;5.646;2023-02-08T16:01:50;4.10;11.60
42141;DHT22;27809;51.864;5.646;2023-02-08T16:04:16;3.90;14.80
42141;DHT22;27809;51.864;5.646;2023-02-08T16:06:51;3.80;15.20
42141;DHT22;27809;51.864;5.646;2023-02-08T16:09:23;4.10;18.90
42141;DHT22;27809;51.864;5.646;2023-02-08T16:11:53;3.80;14.70
42141;DHT22;27809;51.864;5.646;2023-02-08T16:14:21;3.70;18.60
42141;DHT22;27809;51.864;5.646;2023-02-08T16:16:49;3.60;20.10
42141;DHT22;27809;51.864;5.646;2023-02-08T16:19:30;3.80;18.10
42141;DHT22;27809;51.864;5.646;2023-02-08T16:22:14;3.60;13.00
42141;DHT22;27809;51.864;5.646;2023-02-08T16:24:46;3.50;15.60
42141;DHT22;27809;51.864;5.646;2023-02-08T16:27:28;3.60;16.20
42141;DHT22;27809;51.864;5.646;2023-02-08T16:29:54;3.60;13.70
42141;DHT22;27809;51.864;5.646;2023-02-08T16:32:29;3.40;17.40
42141;DHT22;27809;51.864;5.646;2023-02-08T16:34:55;3.40;18.00
42141;DHT22;27809;51.864;5.646;2023-02-08T16:37:32;3.20;18.40
42141;DHT22;27809;51.864;5.646;2023-02-08T16:40:04;3.20;20.40
42141;DHT22;27809;51.864;5.646;2023-02-08T16:42:36;3.00;21.90
42141;DHT22;27809;51.864;5.646;2023-02-08T16:47:45;3.00;23.30
42141;DHT22;27809;51.864;5.646;2023-02-08T16:50:30;3.10;23.30
42141;DHT22;27809;51.864;5.646;2023-02-08T16:53:01;2.80;22.00
42141;DHT22;27809;51.864;5.646;2023-02-08T16:55:30;2.80;19.10
42141;DHT22;27809;51.864;5.646;2023-02-08T16:57:57;2.60;21.10
42141;DHT22;27809;51.864;5.646;2023-02-08T17:00:30;2.70;24.90
42141;DHT22;27809;51.864;5.646;2023-02-08T17:02:56;3.20;25.10
42141;DHT22;27809;51.864;5.646;2023-02-08T17:05:27;2.90;21.60
42141;DHT22;27809;51.864;5.646;2023-02-08T17:07:53;2.60;19.60
42141;DHT22;27809;51.864;5.646;2023-02-08T17:10:39;2.80;16.00
42141;DHT22;27809;51.864;5.646;2023-02-08T17:13:04;2.50;20.80
42141;DHT22;27809;51.864;5.646;2023-02-08T17:15:30;2.40;22.60
42141;DHT22;27809;51.864;5.646;2023-02-08T17:17:56;2.30;23.40
42141;DHT22;27809;51.864;5.646;2023-02-08T17:22:51;2.50;20.60
42141;DHT22;27809;51.864;5.646;2023-02-08T17:25:18;2.40;20.50
42141;DHT22;27809;51.864;5.646;2023-02-08T17:27:50;2.40;19.70
42141;DHT22;27809;51.864;5.646;2023-02-08T17:30:21;2.50;20.00
42141;DHT22;27809;51.864;5.646;2023-02-08T17:32:47;2.40;19.20
42141;DHT22;27809;51.864;5.646;2023-02-08T17:35:14;2.80;14.20
42141;DHT22;27809;51.864;5.646;2023-02-08T17:37:45;2.50;18.00
42141;DHT22;27809;51.864;5.646;2023-02-08T17:40:12;2.60;16.40
42141;DHT22;27809;51.864;5.646;2023-02-08T17:42:37;2.50;20.20
42141;DHT22;27809;51.864;5.646;2023-02-08T17:45:05;2.10;21.90
42141;DHT22;27809;51.864;5.646;2023-02-08T17:47:30;2.00;23.00